Terminal Aerodrome Forecast
Issued by NWS Paducah, KY

Home | Current Version | Previous Version | Graphics & Text | Print | Product List | Glossary On
Versions: 1 2 3 4 5 6 7 8 9 10 11 12 13 14 15 16 17
574
FTUS43 KPAH 251741
TAFPAH
TAF
KPAH 251741Z 2518/2618 18013G21KT P6SM -SHRA FEW025 BKN060
     FM252100 18010G17KT P6SM -SHRA VCTS SCT025 BKN050CB
     FM260000 17006KT P6SM BKN080
     FM260600 22005KT P6SM SCT030 BKN070=

USA.gov is the U.S. government's official web portal to all federal, state and local government web resources and services.